createdAt,value
2017-04-17T00:00:24.984Z,6.20
2017-04-17T00:01:23.963Z,6.20
2017-04-17T00:02:22.985Z,6.20
2017-04-17T00:03:21.969Z,6.20
2017-04-17T00:04:21.018Z,6.20
2017-04-17T00:05:20.254Z,6.20
2017-04-17T00:06:19.182Z,6.20
2017-04-17T00:07:18.137Z,6.10
2017-04-17T00:08:17.192Z,6.10
2017-04-17T00:09:16.141Z,6.10
2017-04-17T00:10:15.112Z,6.10
2017-04-17T00:11:14.401Z,6.10
2017-04-17T00:12:13.377Z,6.10
2017-04-17T00:13:11.928Z,6.10
2017-04-17T00:14:10.966Z,6.10
2017-04-17T00:15:10.099Z,6.00
2017-04-17T00:16:09.087Z,6.00
2017-04-17T00:17:09.020Z,6.00
2017-04-17T00:18:07.979Z,6.00
2017-04-17T00:19:06.969Z,6.00
2017-04-17T00:20:05.933Z,6.00
2017-04-17T00:21:04.944Z,6.00
2017-04-17T00:22:04.080Z,6.10
2017-04-17T00:23:03.325Z,6.10
2017-04-17T00:24:02.666Z,6.10
2017-04-17T00:25:01.593Z,6.10
2017-04-17T00:26:00.523Z,6.10
2017-04-17T00:26:59.648Z,6.10
2017-04-17T00:27:59.044Z,6.10
2017-04-17T00:28:58.249Z,6.00
2017-04-17T00:29:57.198Z,6.00
2017-04-17T00:30:56.212Z,6.00
2017-04-17T00:31:55.790Z,6.00
2017-04-17T00:32:54.785Z,6.00
2017-04-17T00:33:53.714Z,6.00
2017-04-17T00:34:53.126Z,6.00
2017-04-17T00:35:52.088Z,6.00
2017-04-17T00:36:51.080Z,6.00
2017-04-17T00:37:50.013Z,6.00
2017-04-17T00:38:49.018Z,6.00
2017-04-17T00:39:48.345Z,5.90
2017-04-17T00:40:47.985Z,5.90
2017-04-17T00:41:46.958Z,5.90
2017-04-17T00:42:46.050Z,5.90
2017-04-17T00:43:44.983Z,5.90
2017-04-17T00:44:43.977Z,5.90
2017-04-17T00:45:42.952Z,6.00
2017-04-17T00:46:42.182Z,6.00
2017-04-17T00:47:41.218Z,6.00
2017-04-17T00:48:40.190Z,6.00
2017-04-17T00:49:39.133Z,6.00
2017-04-17T00:50:38.122Z,6.10
2017-04-17T00:51:37.073Z,6.10
2017-04-17T00:52:36.276Z,6.10
2017-04-17T00:53:35.192Z,6.20
2017-04-17T00:54:34.124Z,6.20
2017-04-17T00:55:33.075Z,6.30
2017-04-17T00:56:32.044Z,6.20
2017-04-17T00:57:30.962Z,6.20
2017-04-17T00:58:30.278Z,6.20
2017-04-17T00:59:29.253Z,6.20
2017-04-17T01:00:28.321Z,6.20
2017-04-17T01:01:27.422Z,6.20
2017-04-17T01:02:26.490Z,6.10
2017-04-17T01:03:25.427Z,6.10
2017-04-17T01:04:24.686Z,6.10
2017-04-17T01:05:23.732Z,6.20
2017-04-17T01:06:22.695Z,6.10
2017-04-17T01:07:21.640Z,6.20
2017-04-17T01:08:20.622Z,6.20
2017-04-17T01:09:19.567Z,6.20
2017-04-17T01:10:18.785Z,6.10
2017-04-17T01:11:17.723Z,6.10
2017-04-17T01:12:16.309Z,6.10
2017-04-17T01:13:15.356Z,6.00
2017-04-17T01:14:14.302Z,6.00
2017-04-17T01:15:13.231Z,6.10
2017-04-17T01:16:12.476Z,6.20
2017-04-17T01:17:11.424Z,6.10
2017-04-17T01:18:09.945Z,6.10
2017-04-17T01:19:08.907Z,6.10
2017-04-17T01:20:08.244Z,6.10
2017-04-17T01:21:07.175Z,6.10
2017-04-17T01:22:06.385Z,6.10
2017-04-17T01:23:05.434Z,6.10
2017-04-17T01:24:04.405Z,6.10
2017-04-17T01:25:03.355Z,6.20
2017-04-17T01:26:02.321Z,6.30
2017-04-17T01:27:01.366Z,6.30
2017-04-17T01:28:00.673Z,6.40
2017-04-17T01:28:59.734Z,6.40
2017-04-17T01:29:58.692Z,6.40
2017-04-17T01:30:57.647Z,6.30
2017-04-17T01:31:56.606Z,6.40
2017-04-17T01:32:55.550Z,6.30
2017-04-17T01:33:54.680Z,6.30
2017-04-17T01:34:53.593Z,6.30
2017-04-17T01:35:52.659Z,6.30
2017-04-17T01:36:51.588Z,6.30
2017-04-17T01:37:50.528Z,6.30
2017-04-17T01:38:49.508Z,6.30
2017-04-17T01:39:48.776Z,6.40
2017-04-17T01:40:48.121Z,6.40
2017-04-17T01:41:47.095Z,6.40
2017-04-17T01:42:46.102Z,6.40
2017-04-17T01:43:45.061Z,6.40
2017-04-17T01:44:44.011Z,6.40
2017-04-17T01:45:43.285Z,6.40
2017-04-17T01:46:42.217Z,6.40
2017-04-17T01:47:41.200Z,6.30
2017-04-17T01:48:40.124Z,6.30
2017-04-17T01:49:38.685Z,6.40
2017-04-17T01:50:37.648Z,6.40
2017-04-17T01:51:36.845Z,6.40
2017-04-17T01:52:35.790Z,6.40
2017-04-17T01:53:34.721Z,6.40
2017-04-17T01:54:33.638Z,6.40
2017-04-17T01:55:32.601Z,6.30
2017-04-17T01:56:31.520Z,6.30
2017-04-17T01:57:30.366Z,6.30
2017-04-17T01:58:29.310Z,6.30
2017-04-17T01:59:28.286Z,6.30
2017-04-17T02:00:27.213Z,6.30
2017-04-17T02:01:26.176Z,6.30
2017-04-17T02:02:25.155Z,6.40
2017-04-17T02:03:24.059Z,6.40
2017-04-17T02:04:23.433Z,6.20
2017-04-17T02:05:22.508Z,6.20
2017-04-17T02:06:21.496Z,6.20
2017-04-17T02:07:20.457Z,6.20
2017-04-17T02:08:19.561Z,6.20
2017-04-17T02:09:19.181Z,6.20
2017-04-17T02:10:18.255Z,6.20
2017-04-17T02:11:17.278Z,6.30
2017-04-17T02:12:16.294Z,6.30
2017-04-17T02:13:15.495Z,6.30
2017-04-17T02:14:14.476Z,6.40
2017-04-17T02:15:14.104Z,6.40
2017-04-17T02:16:14.066Z,6.30
2017-04-17T02:18:33.146Z,6.30
2017-04-17T02:19:32.202Z,6.30
2017-04-17T02:20:31.831Z,6.20
2017-04-17T02:21:30.779Z,6.20
2017-04-17T02:22:29.755Z,6.20
2017-04-17T02:23:28.686Z,6.20
2017-04-17T02:24:27.642Z,6.20
2017-04-17T02:25:26.602Z,6.20
2017-04-17T02:26:25.898Z,6.20
2017-04-17T02:27:24.845Z,6.30
2017-04-17T02:28:23.764Z,6.30
2017-04-17T02:29:22.705Z,6.30
2017-04-17T02:30:21.667Z,6.20
2017-04-17T02:31:20.626Z,6.20
2017-04-17T02:32:19.856Z,6.10
2017-04-17T02:33:18.814Z,6.10
2017-04-17T02:34:17.802Z,6.10
2017-04-17T02:35:16.823Z,6.20
2017-04-17T02:36:15.808Z,6.10
2017-04-17T02:37:15.010Z,6.20
2017-04-17T02:38:14.282Z,6.30
2017-04-17T02:39:13.302Z,6.40
2017-04-17T02:40:12.269Z,6.40
2017-04-17T02:41:11.190Z,6.40
2017-04-17T02:42:10.157Z,6.40
2017-04-17T02:43:08.707Z,6.40
2017-04-17T02:44:07.945Z,6.40
2017-04-17T02:45:06.936Z,6.40
2017-04-17T02:46:05.901Z,6.40
2017-04-17T02:47:04.852Z,6.40
2017-04-17T02:48:03.830Z,6.30
2017-04-17T02:49:02.785Z,6.30
2017-04-17T02:50:02.049Z,6.30
2017-04-17T02:51:01.112Z,6.20
2017-04-17T02:52:00.480Z,6.20
2017-04-17T02:52:59.434Z,6.20
2017-04-17T02:53:58.415Z,6.10
2017-04-17T02:54:57.411Z,6.10
2017-04-17T02:55:56.769Z,6.10
2017-04-17T02:56:55.785Z,6.00
2017-04-17T02:57:54.761Z,6.00
2017-04-17T02:58:54.101Z,6.00
2017-04-17T02:59:53.451Z,6.00
2017-04-17T03:00:52.436Z,5.90
2017-04-17T03:01:51.781Z,5.90
2017-04-17T03:02:50.734Z,5.90
2017-04-17T03:03:49.704Z,6.00
2017-04-17T03:04:48.749Z,6.10
2017-04-17T03:05:47.875Z,6.20
2017-04-17T03:06:47.618Z,6.20
2017-04-17T03:07:46.909Z,6.10
2017-04-17T03:08:45.878Z,6.10
2017-04-17T03:09:44.401Z,6.10
2017-04-17T03:10:44.220Z,5.90
2017-04-17T03:11:43.149Z,5.80
2017-04-17T03:12:42.146Z,5.80
2017-04-17T03:13:41.394Z,5.70
2017-04-17T03:14:40.384Z,5.70
2017-04-17T03:15:39.457Z,5.50
2017-04-17T03:16:38.406Z,5.50
2017-04-17T03:17:37.391Z,5.60
2017-04-17T03:18:36.353Z,5.70
2017-04-17T03:19:35.733Z,6.00
2017-04-17T03:20:34.710Z,6.00
2017-04-17T03:21:33.745Z,5.80
2017-04-17T03:22:32.708Z,5.90
2017-04-17T03:23:31.715Z,6.10
2017-04-17T03:24:30.840Z,6.10
2017-04-17T03:25:30.071Z,5.90
2017-04-17T03:26:29.036Z,5.90
2017-04-17T03:27:28.021Z,5.90
2017-04-17T03:28:26.977Z,6.10
2017-04-17T03:29:25.969Z,6.30
2017-04-17T03:30:24.978Z,6.40
2017-04-17T03:31:24.293Z,6.20
2017-04-17T03:32:23.266Z,6.10
2017-04-17T03:33:22.271Z,5.90
2017-04-17T03:34:21.230Z,5.90
2017-04-17T03:35:20.345Z,5.80
2017-04-17T03:36:19.301Z,5.90
2017-04-17T03:37:18.652Z,6.00
2017-04-17T03:38:17.707Z,6.00
2017-04-17T03:39:16.821Z,5.90
2017-04-17T03:40:15.778Z,5.80
2017-04-17T03:41:14.741Z,5.70
2017-04-17T03:42:13.738Z,5.60
2017-04-17T03:43:13.049Z,5.60
2017-04-17T03:44:12.006Z,5.50
2017-04-17T03:45:10.935Z,5.60
2017-04-17T03:46:09.905Z,5.60
2017-04-17T03:47:08.543Z,5.60
2017-04-17T03:48:07.532Z,5.70
2017-04-17T03:49:07.158Z,5.80
2017-04-17T03:50:06.236Z,5.80
2017-04-17T03:51:05.545Z,5.70
2017-04-17T03:52:04.547Z,5.70
2017-04-17T03:53:03.535Z,5.80
2017-04-17T03:54:02.882Z,6.00
2017-04-17T03:55:02.171Z,6.10
2017-04-17T03:56:01.133Z,5.90
2017-04-17T03:57:00.076Z,5.90
2017-04-17T03:57:59.045Z,5.80
2017-04-17T03:58:58.069Z,5.70
2017-04-17T03:59:57.021Z,5.70
2017-04-17T04:00:56.641Z,5.70
2017-04-17T04:01:55.636Z,5.90
2017-04-17T04:02:54.613Z,6.00
2017-04-17T04:03:53.666Z,6.10
2017-04-17T04:04:52.632Z,6.20
2017-04-17T04:05:51.594Z,6.00
2017-04-17T04:06:50.833Z,5.90
2017-04-17T04:07:49.806Z,5.80
2017-04-17T04:08:48.757Z,5.80
2017-04-17T04:09:47.729Z,5.70
2017-04-17T04:10:47.095Z,5.70
2017-04-17T04:11:46.044Z,5.80
2017-04-17T04:12:45.294Z,5.80
2017-04-17T04:13:44.271Z,5.80
2017-04-17T04:14:43.269Z,5.90
2017-04-17T04:15:42.266Z,6.00
2017-04-17T04:16:41.346Z,6.00
2017-04-17T04:17:40.445Z,6.00
2017-04-17T04:18:39.809Z,5.90
2017-04-17T04:19:38.953Z,5.90
2017-04-17T04:20:38.552Z,5.90
2017-04-17T04:21:38.024Z,6.00
2017-04-17T04:22:37.139Z,6.10
2017-04-17T04:23:36.963Z,6.10
2017-04-17T04:24:36.400Z,6.20
2017-04-17T04:25:36.100Z,6.20
2017-04-17T04:26:35.186Z,6.30
2017-04-17T04:27:34.309Z,6.40
2017-04-17T04:28:33.764Z,6.40
2017-04-17T04:29:32.827Z,6.40
2017-04-17T04:30:32.318Z,6.40
2017-04-17T04:31:31.538Z,6.50
2017-04-17T04:32:30.613Z,6.50
2017-04-17T04:33:29.669Z,6.50
2017-04-17T04:34:28.897Z,6.60
2017-04-17T04:35:28.154Z,6.50
2017-04-17T04:36:27.753Z,6.50
2017-04-17T04:37:26.824Z,6.50
2017-04-17T04:38:25.962Z,6.50
2017-04-17T04:39:25.157Z,6.50
2017-04-17T04:40:24.518Z,6.50
2017-04-17T04:41:23.553Z,6.40
2017-04-17T04:42:22.930Z,6.20
2017-04-17T04:43:22.000Z,6.00
2017-04-17T04:44:21.016Z,5.90
2017-04-17T04:45:20.013Z,5.80
2017-04-17T04:46:18.604Z,5.80
2017-04-17T04:47:17.643Z,5.70
2017-04-17T04:48:16.977Z,5.70
2017-04-17T04:49:16.066Z,5.60
2017-04-17T04:50:15.034Z,5.60
2017-04-17T04:51:14.105Z,5.60
2017-04-17T04:52:13.064Z,5.50
2017-04-17T04:53:12.108Z,5.50
2017-04-17T04:54:11.382Z,5.50
2017-04-17T04:55:10.601Z,5.50
2017-04-17T04:56:09.633Z,5.40
2017-04-17T04:57:08.578Z,5.30
2017-04-17T04:58:07.572Z,5.30
2017-04-17T04:59:06.549Z,5.20
2017-04-17T05:00:05.972Z,5.10
2017-04-17T05:01:05.457Z,5.00
2017-04-17T05:02:04.478Z,5.00
2017-04-17T05:03:03.800Z,5.10
2017-04-17T05:04:02.773Z,5.20
2017-04-17T05:05:01.725Z,5.20
2017-04-17T05:06:01.107Z,5.20
2017-04-17T05:07:00.123Z,5.30
2017-04-17T05:07:59.353Z,5.20
2017-04-17T05:08:58.271Z,5.20
2017-04-17T05:09:57.208Z,5.20
2017-04-17T05:10:56.179Z,5.30
2017-04-17T05:11:55.513Z,5.20
2017-04-17T05:12:54.626Z,5.20
2017-04-17T05:13:53.615Z,5.10
2017-04-17T05:14:52.598Z,5.10
2017-04-17T05:15:51.574Z,5.00
2017-04-17T05:16:50.539Z,5.10
2017-04-17T05:17:49.761Z,5.10
2017-04-17T05:18:48.722Z,5.10
2017-04-17T05:19:47.677Z,5.00
2017-04-17T05:20:46.644Z,5.00
2017-04-17T05:21:45.628Z,5.00
2017-04-17T05:22:44.866Z,5.10
2017-04-17T05:23:44.225Z,5.20
2017-04-17T05:24:43.173Z,5.20
2017-04-17T05:25:42.162Z,5.20
2017-04-17T05:26:41.068Z,5.20
2017-04-17T05:27:40.008Z,5.20
2017-04-17T05:28:38.973Z,5.20
2017-04-17T05:29:38.235Z,5.30
2017-04-17T05:30:40.688Z,5.30
2017-04-17T05:31:39.823Z,5.40
2017-04-17T05:32:39.429Z,5.50
2017-04-17T05:33:38.349Z,5.70
2017-04-17T05:34:37.522Z,5.70
2017-04-17T05:35:36.935Z,5.60
2017-04-17T05:36:35.942Z,5.60
2017-04-17T05:37:34.877Z,5.60
2017-04-17T05:38:34.189Z,5.80
2017-04-17T05:39:33.189Z,5.90
2017-04-17T05:40:32.565Z,5.90
2017-04-17T05:41:31.572Z,5.80
2017-04-17T05:42:30.544Z,5.80
2017-04-17T05:43:29.610Z,5.90
2017-04-17T05:44:28.551Z,6.00
2017-04-17T05:45:27.549Z,6.00
2017-04-17T05:46:26.860Z,5.80
2017-04-17T05:47:25.878Z,5.80
2017-04-17T05:48:24.862Z,5.80
2017-04-17T05:49:23.441Z,5.90
2017-04-17T05:50:22.377Z,6.00
2017-04-17T05:51:21.325Z,6.10
2017-04-17T05:52:20.648Z,6.00
2017-04-17T05:53:19.600Z,6.00
2017-04-17T05:54:18.593Z,6.00
2017-04-17T05:55:17.185Z,6.00
2017-04-17T05:56:16.500Z,6.00
2017-04-17T05:57:15.493Z,5.90
2017-04-17T05:58:14.917Z,5.70
2017-04-17T05:59:13.865Z,5.70
2017-04-17T06:00:12.987Z,5.80
2017-04-17T06:01:11.960Z,5.90
2017-04-17T06:02:10.917Z,6.00
2017-04-17T06:03:09.973Z,6.10
2017-04-17T06:04:09.570Z,6.20
2017-04-17T06:05:08.543Z,6.30
2017-04-17T06:06:07.668Z,6.40
2017-04-17T06:07:06.735Z,6.40
2017-04-17T06:08:06.028Z,6.40
2017-04-17T06:09:05.283Z,6.40
2017-04-17T06:10:05.003Z,6.50
2017-04-17T06:11:04.358Z,6.50
2017-04-17T06:12:03.309Z,6.50
2017-04-17T06:13:02.260Z,6.40
2017-04-17T06:14:01.425Z,6.40
2017-04-17T06:15:00.330Z,6.50
2017-04-17T06:15:59.561Z,6.60
2017-04-17T06:16:58.603Z,6.60
2017-04-17T06:17:57.517Z,6.60
2017-04-17T06:18:56.465Z,6.50
2017-04-17T06:19:55.450Z,6.50
2017-04-17T06:20:54.493Z,6.50
2017-04-17T06:21:53.819Z,6.50
2017-04-17T06:22:53.647Z,6.50
2017-04-17T06:23:52.604Z,6.60
2017-04-17T06:24:51.609Z,6.60
2017-04-17T06:25:50.621Z,6.60
2017-04-17T06:26:49.636Z,6.60
2017-04-17T06:27:48.950Z,6.60
2017-04-17T06:28:48.546Z,6.50
2017-04-17T06:29:47.501Z,6.40
2017-04-17T06:30:46.496Z,6.40
2017-04-17T06:31:45.698Z,6.40
2017-04-17T06:32:44.294Z,6.40
2017-04-17T06:33:43.302Z,6.60
2017-04-17T06:34:42.312Z,6.70
2017-04-17T06:35:41.316Z,6.70
2017-04-17T06:36:40.929Z,6.70
2017-04-17T06:37:39.975Z,6.70
2017-04-17T06:38:39.309Z,6.70
2017-04-17T06:39:38.343Z,6.70
2017-04-17T06:40:38.429Z,6.70
2017-04-17T06:41:37.440Z,6.70
2017-04-17T06:42:36.410Z,6.50
2017-04-17T06:43:35.978Z,6.40
2017-04-17T06:44:35.333Z,6.50
2017-04-17T06:45:34.374Z,6.50
2017-04-17T06:46:33.344Z,6.50
2017-04-17T06:47:32.393Z,6.60
2017-04-17T06:48:31.350Z,6.60
2017-04-17T06:49:30.722Z,6.50
2017-04-17T06:50:30.171Z,6.50
2017-04-17T06:51:29.499Z,6.50
2017-04-17T06:52:28.661Z,6.50
2017-04-17T06:53:27.826Z,6.40
2017-04-17T06:54:26.792Z,6.40
2017-04-17T06:55:25.845Z,6.30
2017-04-17T06:56:26.841Z,6.40
2017-04-17T06:57:25.850Z,6.40
2017-04-17T06:58:24.822Z,6.50
2017-04-17T06:59:23.779Z,6.60
2017-04-17T07:00:22.829Z,6.70
2017-04-17T07:01:21.806Z,6.70
2017-04-17T07:02:21.245Z,6.70
2017-04-17T07:03:20.330Z,6.70
2017-04-17T07:04:19.381Z,6.70
2017-04-17T07:05:18.326Z,6.60
2017-04-17T07:06:17.868Z,6.40
2017-04-17T07:07:16.862Z,6.30
2017-04-17T07:08:16.483Z,6.20
2017-04-17T07:09:15.405Z,6.20
2017-04-17T07:10:14.406Z,6.30
2017-04-17T07:11:13.413Z,6.30
2017-04-17T07:12:12.361Z,6.40
2017-04-17T07:13:11.773Z,6.60
2017-04-17T07:14:12.773Z,6.70
2017-04-17T07:15:11.735Z,6.70
2017-04-17T07:16:11.097Z,6.60
2017-04-17T07:17:10.163Z,6.70
2017-04-17T07:18:09.196Z,6.80
2017-04-17T07:19:08.207Z,6.80
2017-04-17T07:20:07.655Z,6.80
2017-04-17T07:21:06.641Z,6.90
2017-04-17T07:22:05.612Z,6.90
2017-04-17T07:23:04.687Z,6.80
2017-04-17T07:24:03.735Z,6.80
2017-04-17T07:25:02.408Z,6.80
2017-04-17T07:26:01.767Z,6.70
2017-04-17T07:27:00.830Z,6.70
2017-04-17T07:27:59.904Z,6.70
2017-04-17T07:29:02.501Z,6.60
2017-04-17T07:30:01.516Z,6.60
2017-04-17T07:31:00.659Z,6.60
2017-04-17T07:32:00.025Z,6.60
2017-04-17T07:32:58.994Z,6.60
2017-04-17T07:33:58.068Z,6.60
2017-04-17T07:34:57.494Z,6.50
2017-04-17T07:35:56.695Z,6.60
2017-04-17T07:36:57.526Z,6.60
2017-04-17T07:37:57.298Z,6.60
2017-04-17T07:38:56.675Z,6.60
2017-04-17T07:39:55.628Z,6.50
2017-04-17T07:40:54.657Z,6.50
2017-04-17T07:41:53.640Z,6.50
2017-04-17T07:42:53.121Z,6.50
2017-04-17T07:43:52.434Z,6.50
2017-04-17T07:44:51.444Z,6.50
2017-04-17T07:45:50.480Z,6.30
2017-04-17T07:46:49.582Z,6.30
2017-04-17T07:47:48.616Z,6.30
2017-04-17T07:48:47.760Z,6.20
2017-04-17T07:49:47.029Z,6.20
2017-04-17T07:50:46.712Z,6.20
2017-04-17T07:51:45.706Z,6.10
2017-04-17T07:52:44.854Z,6.10
2017-04-17T07:53:44.269Z,6.00
2017-04-17T07:54:43.922Z,6.00
2017-04-17T07:55:43.169Z,6.00
2017-04-17T07:56:42.442Z,6.00
2017-04-17T07:57:41.733Z,5.90
2017-04-17T07:58:41.102Z,5.90
2017-04-17T07:59:40.105Z,5.90
2017-04-17T08:00:39.251Z,5.80
2017-04-17T08:01:38.788Z,5.80
2017-04-17T08:02:40.718Z,5.70
2017-04-17T08:03:39.739Z,5.70
2017-04-17T08:04:38.393Z,5.70
2017-04-17T08:05:37.559Z,5.60
2017-04-17T08:06:36.708Z,5.60
2017-04-17T08:07:36.054Z,5.60
2017-04-17T08:08:35.262Z,5.70
2017-04-17T08:09:34.210Z,5.70
2017-04-17T08:10:33.186Z,5.70
2017-04-17T08:11:32.158Z,5.70
2017-04-17T08:12:31.139Z,5.70
2017-04-17T08:13:30.424Z,5.80
2017-04-17T08:14:29.429Z,5.80
2017-04-17T08:15:28.455Z,5.80
2017-04-17T08:16:27.812Z,5.80
2017-04-17T08:17:26.768Z,5.70
2017-04-17T08:18:26.080Z,5.70
2017-04-17T08:19:25.271Z,5.80
2017-04-17T08:20:24.211Z,5.80
2017-04-17T08:21:23.159Z,5.90
2017-04-17T08:22:22.187Z,5.90
2017-04-17T08:23:21.240Z,5.90
2017-04-17T08:24:20.545Z,5.90
2017-04-17T08:25:20.153Z,5.80
2017-04-17T08:26:20.222Z,5.80
2017-04-17T08:27:19.270Z,5.70
2017-04-17T08:28:18.450Z,5.60
2017-04-17T08:29:17.413Z,5.60
2017-04-17T08:30:16.391Z,5.50
2017-04-17T08:31:20.065Z,5.50
2017-04-17T08:32:19.031Z,5.50
2017-04-17T08:33:18.006Z,5.40
2017-04-17T08:34:17.110Z,5.40
2017-04-17T08:35:16.096Z,5.30
2017-04-17T08:36:15.091Z,5.30
2017-04-17T08:37:15.053Z,5.30
2017-04-17T08:38:14.669Z,5.30
2017-04-17T08:39:14.787Z,5.30
2017-04-17T08:40:13.816Z,5.30
2017-04-17T08:41:12.841Z,5.30
2017-04-17T08:42:12.180Z,5.30
2017-04-17T08:43:11.586Z,5.30
2017-04-17T08:44:10.665Z,5.30
2017-04-17T08:45:09.959Z,5.30
2017-04-17T08:46:10.090Z,5.20
2017-04-17T08:47:09.341Z,5.20
2017-04-17T08:48:08.517Z,5.20
2017-04-17T08:49:08.181Z,5.20
2017-04-17T08:50:07.495Z,5.10
2017-04-17T08:51:06.412Z,5.10
2017-04-17T08:52:05.968Z,5.10
2017-04-17T08:53:04.991Z,5.00
2017-04-17T08:54:04.201Z,5.00
2017-04-17T08:55:03.567Z,5.00
2017-04-17T08:56:02.742Z,4.90
2017-04-17T08:57:02.008Z,4.90
2017-04-17T08:58:00.990Z,5.00
2017-04-17T08:59:00.149Z,5.00
2017-04-17T08:59:59.185Z,5.00
2017-04-17T09:00:58.596Z,5.00
2017-04-17T09:01:58.397Z,5.00
2017-04-17T09:02:57.994Z,5.00
2017-04-17T09:03:57.614Z,4.90
2017-04-17T09:04:57.256Z,5.00
2017-04-17T09:05:56.380Z,5.00
2017-04-17T09:06:55.785Z,5.00
2017-04-17T09:07:55.002Z,5.00
2017-04-17T09:08:54.208Z,5.00
2017-04-17T09:09:53.353Z,4.90
2017-04-17T09:10:52.494Z,5.00
2017-04-17T09:11:51.248Z,5.00
2017-04-17T09:12:50.651Z,5.10
2017-04-17T09:13:49.775Z,5.10
2017-04-17T09:14:48.925Z,5.10
2017-04-17T09:15:47.707Z,5.10
2017-04-17T09:16:46.777Z,5.10
2017-04-17T09:17:45.924Z,5.10
2017-04-17T09:18:45.092Z,5.20
2017-04-17T09:19:44.260Z,5.10
2017-04-17T09:20:43.458Z,5.10
2017-04-17T09:21:42.650Z,5.10
2017-04-17T09:22:41.807Z,5.10
2017-04-17T09:23:40.865Z,5.10
2017-04-17T09:24:40.156Z,5.10
2017-04-17T09:25:39.217Z,5.10
2017-04-17T09:26:38.284Z,5.10
2017-04-17T09:27:37.358Z,5.10
2017-04-17T09:28:36.618Z,5.10
2017-04-17T09:29:36.509Z,5.10
2017-04-17T09:30:36.329Z,5.10
2017-04-17T09:31:35.511Z,5.10
2017-04-17T09:32:34.973Z,5.20
2017-04-17T09:33:34.039Z,5.20
2017-04-17T09:34:33.980Z,5.20
2017-04-17T09:35:33.202Z,5.30
2017-04-17T09:36:32.530Z,5.40
2017-04-17T09:37:31.640Z,5.40
2017-04-17T09:38:30.621Z,5.50
2017-04-17T09:39:29.612Z,5.50
2017-04-17T09:40:28.561Z,5.60
2017-04-17T09:41:27.596Z,5.60
2017-04-17T09:42:26.908Z,5.70
2017-04-17T09:43:25.883Z,5.80
2017-04-17T09:44:25.170Z,5.80
2017-04-17T09:45:24.180Z,5.80
2017-04-17T09:46:23.117Z,5.70
2017-04-17T09:47:22.024Z,5.80
2017-04-17T09:48:21.274Z,5.80
2017-04-17T09:49:20.198Z,5.90
2017-04-17T09:50:19.164Z,5.90
2017-04-17T09:51:18.086Z,5.80
2017-04-17T09:52:17.050Z,5.80
2017-04-17T09:53:16.041Z,5.80
2017-04-17T09:54:15.256Z,5.90
2017-04-17T09:55:14.193Z,5.90
2017-04-17T09:56:13.133Z,6.00
2017-04-17T09:57:12.117Z,6.00
2017-04-17T09:58:11.098Z,6.00
2017-04-17T09:59:15.799Z,6.00
2017-04-17T10:00:14.784Z,6.00
2017-04-17T10:01:13.765Z,5.90
2017-04-17T10:02:12.708Z,5.90
2017-04-17T10:03:12.091Z,6.00
2017-04-17T10:04:11.022Z,5.90
2017-04-17T10:05:10.373Z,5.90
2017-04-17T10:06:09.306Z,5.90
2017-04-17T10:07:08.310Z,5.90
2017-04-17T10:08:07.290Z,5.80
2017-04-17T10:09:06.241Z,5.80
2017-04-17T10:10:05.250Z,5.80
2017-04-17T10:11:04.452Z,5.80
2017-04-17T10:12:03.393Z,5.80
2017-04-17T10:13:02.639Z,5.70
2017-04-17T10:14:01.563Z,5.60
2017-04-17T10:15:00.640Z,5.60
2017-04-17T10:16:00.086Z,5.60
2017-04-17T10:16:59.046Z,5.60
2017-04-17T10:17:58.343Z,5.60
2017-04-17T10:18:57.421Z,5.60
2017-04-17T10:19:56.784Z,5.60
2017-04-17T10:20:55.741Z,5.60
2017-04-17T10:21:54.992Z,5.60
2017-04-17T10:22:53.981Z,5.60
2017-04-17T10:24:01.828Z,5.70
2017-04-17T10:25:00.749Z,5.70
2017-04-17T10:25:59.693Z,5.60
2017-04-17T10:26:58.882Z,5.70
2017-04-17T10:27:59.736Z,5.70
2017-04-17T10:29:00.350Z,5.70
2017-04-17T10:30:01.355Z,5.70
2017-04-17T10:31:02.255Z,5.70
2017-04-17T10:32:02.523Z,5.70
2017-04-17T10:33:03.328Z,5.70
2017-04-17T10:34:05.005Z,5.70
2017-04-17T10:35:05.430Z,5.70
2017-04-17T10:36:06.552Z,5.70
2017-04-17T10:37:05.755Z,5.70
2017-04-17T10:38:04.735Z,5.70
2017-04-17T10:39:03.801Z,5.70
2017-04-17T10:40:02.756Z,5.70
2017-04-17T10:41:01.720Z,5.70
2017-04-17T10:42:00.638Z,5.70
2017-04-17T10:42:59.965Z,5.60
2017-04-17T10:43:59.042Z,5.70
2017-04-17T10:44:57.980Z,5.70
2017-04-17T10:46:01.926Z,5.70
2017-04-17T10:47:00.838Z,5.70
2017-04-17T10:47:59.813Z,5.80
2017-04-17T10:48:59.798Z,5.80
2017-04-17T10:50:04.050Z,5.80
2017-04-17T10:51:03.133Z,5.90
2017-04-17T10:52:02.119Z,5.90
2017-04-17T10:53:01.222Z,5.90
2017-04-17T10:54:00.134Z,5.90
2017-04-17T10:54:59.069Z,5.90
2017-04-17T10:55:58.066Z,5.90
2017-04-17T10:56:56.988Z,5.90
2017-04-17T10:57:55.987Z,6.00
2017-04-17T10:58:55.429Z,6.00
2017-04-17T10:59:54.346Z,6.00
2017-04-17T11:00:53.303Z,6.00
2017-04-17T11:01:52.644Z,6.10
2017-04-17T11:02:51.616Z,6.10
2017-04-17T11:03:50.529Z,6.10
2017-04-17T11:04:49.781Z,6.20
2017-04-17T11:05:48.759Z,6.20
2017-04-17T11:06:47.757Z,6.20
2017-04-17T11:07:47.009Z,6.30
2017-04-17T11:08:45.930Z,6.20
2017-04-17T11:09:44.900Z,6.20
2017-04-17T11:10:44.187Z,6.20
2017-04-17T11:11:43.170Z,6.30
2017-04-17T11:12:42.117Z,6.40
2017-04-17T11:13:41.078Z,6.40
2017-04-17T11:14:40.016Z,6.40
2017-04-17T11:15:38.983Z,6.50
2017-04-17T11:16:38.189Z,6.60
2017-04-17T11:17:37.785Z,6.60
2017-04-17T11:18:36.796Z,6.70
2017-04-17T11:19:35.995Z,6.70
2017-04-17T11:20:34.970Z,6.80
2017-04-17T11:21:33.926Z,6.90
2017-04-17T11:22:33.207Z,7.00
2017-04-17T11:23:32.136Z,7.00
2017-04-17T11:24:31.153Z,7.00
2017-04-17T11:25:30.079Z,7.10
2017-04-17T11:26:30.601Z,7.10
2017-04-17T11:27:29.930Z,7.20
2017-04-17T11:28:29.251Z,7.30
2017-04-17T11:29:28.172Z,7.30
2017-04-17T11:30:27.092Z,7.30
2017-04-17T11:31:26.029Z,7.40
2017-04-17T11:32:24.963Z,7.50
2017-04-17T11:33:23.886Z,7.50
2017-04-17T11:34:23.148Z,7.60
2017-04-17T11:35:22.007Z,7.60
2017-04-17T11:36:21.020Z,7.80
2017-04-17T11:37:19.965Z,7.80
2017-04-17T11:38:18.920Z,7.80
2017-04-17T11:39:17.889Z,7.80
2017-04-17T11:40:16.952Z,7.80
2017-04-17T11:41:17.061Z,7.70
2017-04-17T11:42:16.034Z,7.70
2017-04-17T11:43:14.974Z,7.70
2017-04-17T11:44:13.884Z,7.70
2017-04-17T11:45:14.390Z,7.90
2017-04-17T11:46:14.743Z,7.90
2017-04-17T11:47:14.870Z,7.90
2017-04-17T11:48:13.821Z,7.90
2017-04-17T11:49:12.775Z,8.00
2017-04-17T11:50:11.772Z,7.90
2017-04-17T11:51:10.737Z,7.90
2017-04-17T11:52:10.162Z,7.80
2017-04-17T11:53:09.188Z,7.80
2017-04-17T11:54:08.141Z,7.90
2017-04-17T11:55:07.151Z,7.80
2017-04-17T11:56:06.115Z,7.80
2017-04-17T11:57:05.097Z,7.80
2017-04-17T11:58:22.858Z,7.80
2017-04-17T11:59:21.783Z,7.80
2017-04-17T12:00:20.730Z,7.80
2017-04-17T12:01:20.060Z,7.80
2017-04-17T12:02:19.021Z,7.80
2017-04-17T12:03:18.109Z,7.70
2017-04-17T12:04:17.412Z,7.60
2017-04-17T12:05:16.441Z,7.60
2017-04-17T12:06:15.388Z,7.60
2017-04-17T12:07:14.333Z,7.60
2017-04-17T12:08:13.725Z,7.50
2017-04-17T12:09:12.817Z,7.50
2017-04-17T12:10:12.093Z,7.50
2017-04-17T12:11:11.059Z,7.60
2017-04-17T12:12:10.061Z,7.80
2017-04-17T12:13:09.049Z,7.90
2017-04-17T12:14:08.029Z,7.90
2017-04-17T12:15:06.965Z,7.90
2017-04-17T12:16:06.233Z,7.90
2017-04-17T12:17:05.172Z,7.90
2017-04-17T12:18:04.400Z,7.90
2017-04-17T12:19:03.953Z,7.90
2017-04-17T12:20:03.283Z,8.00
2017-04-17T12:21:02.772Z,8.00
2017-04-17T12:22:02.086Z,8.10
2017-04-17T12:23:01.094Z,8.20
2017-04-17T12:24:00.135Z,8.20
2017-04-17T12:24:59.061Z,8.30
2017-04-17T12:25:57.980Z,8.30
2017-04-17T12:26:57.045Z,8.30
2017-04-17T12:27:55.840Z,8.30
2017-04-17T12:28:54.786Z,8.40
2017-04-17T12:29:53.757Z,8.50
2017-04-17T12:30:52.807Z,8.60
2017-04-17T12:31:51.908Z,8.60
2017-04-17T12:32:51.013Z,8.70
2017-04-17T12:33:50.353Z,8.70
2017-04-17T12:34:49.812Z,8.70
2017-04-17T12:35:48.771Z,8.60
2017-04-17T12:36:47.715Z,8.60
2017-04-17T12:37:47.009Z,8.60
2017-04-17T12:38:46.097Z,8.70
2017-04-17T12:39:45.124Z,8.70
2017-04-17T12:40:44.074Z,8.70
2017-04-17T12:41:43.037Z,8.70
2017-04-17T12:42:41.977Z,8.70
2017-04-17T12:43:40.955Z,8.60
2017-04-17T12:44:39.920Z,8.50
2017-04-17T12:45:39.416Z,8.50
2017-04-17T12:46:38.363Z,8.50
2017-04-17T12:47:37.297Z,8.40
2017-04-17T12:48:36.507Z,8.50
2017-04-17T12:49:35.722Z,8.50
2017-04-17T12:50:34.632Z,8.40
2017-04-17T12:51:33.903Z,8.40
2017-04-17T12:52:33.228Z,8.30
2017-04-17T12:53:32.674Z,8.30
2017-04-17T12:54:31.637Z,8.30
2017-04-17T12:55:30.604Z,8.40
2017-04-17T12:56:29.582Z,8.40
2017-04-17T12:57:28.996Z,8.50
2017-04-17T12:58:27.944Z,8.60
2017-04-17T12:59:27.131Z,8.70
2017-04-17T13:00:26.080Z,8.80
2017-04-17T13:01:25.030Z,8.80
2017-04-17T13:02:23.953Z,8.70
2017-04-17T13:03:23.038Z,8.60
2017-04-17T13:04:21.985Z,8.50
2017-04-17T13:05:21.310Z,8.50
2017-04-17T13:06:20.236Z,8.50
2017-04-17T13:07:19.177Z,8.50
2017-04-17T13:08:18.081Z,8.50
2017-04-17T13:09:17.341Z,8.50